Time;durP1;ratioP1;P1;durP2;ratioP2;P2;SDS_P1;SDS_P2;PMS_P1;PMS_P2;Temp;Humidity;BMP_temperature;BMP_pressure;BME280_temperature;BME280_humidity;BME280_pressure;Samples;Min_cycle;Max_cycle;Signal;HPM_P1;HPM_P2
2022/12/06 00:01:33;;;;;;;28.92;14.18;;;4.00;99.90;;;2.50;100.00;101274.38;5013419;28;20045;-79
2022/12/06 00:04:06;;;;;;;32.05;15.40;;;4.00;99.90;;;2.50;100.00;101273.50;5014153;28;20533;-77
2022/12/06 00:06:38;;;;;;;31.02;15.32;;;4.00;99.90;;;2.43;100.00;101268.34;5017624;23;20049;-78
2022/12/06 00:09:04;;;;;;;23.17;13.23;;;4.00;99.90;;;2.44;100.00;101266.59;5020131;28;20509;-79
2022/12/06 00:11:35;;;;;;;27.77;14.63;;;4.00;99.90;;;2.45;100.00;101263.13;5019506;28;20045;-78
2022/12/06 00:14:06;;;;;;;25.58;14.23;;;4.00;99.90;;;2.47;100.00;101267.44;5003314;28;20030;-78
2022/12/06 00:16:33;;;;;;;27.25;14.57;;;4.00;99.90;;;2.48;100.00;101265.72;4999453;28;20042;-78
2022/12/06 00:19:08;;;;;;;25.35;13.98;;;4.00;99.90;;;2.50;100.00;101266.56;4998764;28;20034;-78
2022/12/06 00:21:35;;;;;;;24.40;13.10;;;4.00;99.90;;;2.50;100.00;101271.75;5000511;28;20041;-78
2022/12/06 00:24:11;;;;;;;23.63;13.80;;;4.00;99.90;;;2.51;100.00;101273.50;4985918;28;20073;-78
2022/12/06 00:26:40;;;;;;;35.40;15.52;;;4.00;99.90;;;2.51;100.00;101260.50;4996768;23;20951;-78
2022/12/06 00:29:17;;;;;;;26.35;14.52;;;4.00;99.90;;;2.51;100.00;101263.13;5034682;28;20075;-77
2022/12/06 00:31:43;;;;;;;32.72;14.15;;;4.00;99.90;;;2.52;100.00;101272.63;5034897;28;20026;-78
2022/12/06 00:34:08;;;;;;;36.53;16.33;;;4.10;99.90;;;2.53;100.00;101260.47;5020708;28;20032;-78
2022/12/06 00:36:42;;;;;;;33.30;15.75;;;4.00;99.90;;;2.53;100.00;101266.56;5032624;28;20030;-78
2022/12/06 00:39:13;;;;;;;37.88;16.63;;;4.10;99.90;;;2.55;100.00;101270.03;4983140;28;20045;-77
2022/12/06 00:41:47;;;;;;;45.53;16.80;;;4.10;99.90;;;2.54;100.00;101263.09;5000530;28;20104;-78
2022/12/06 00:44:12;;;;;;;95.05;20.30;;;4.00;99.90;;;2.52;100.00;101258.78;5000519;28;20026;-78
2022/12/06 00:46:39;;;;;;;76.97;20.17;;;4.00;99.90;;;2.53;100.00;101263.97;5003749;28;20041;-78
2022/12/06 00:49:09;;;;;;;64.97;18.67;;;4.00;99.90;;;2.51;100.00;101259.66;4998283;28;20073;-77
2022/12/06 00:51:38;;;;;;;45.60;17.48;;;4.00;99.90;;;2.49;100.00;101258.78;5000875;28;20118;-77
2022/12/06 00:54:05;;;;;;;50.83;17.60;;;4.00;99.90;;;2.49;100.00;101261.41;4983787;28;20034;-78
2022/12/06 00:56:33;;;;;;;43.45;17.92;;;4.00;99.90;;;2.49;100.00;101259.66;4999452;28;20117;-78
2022/12/06 00:59:04;;;;;;;34.35;15.38;;;4.00;99.90;;;2.47;100.00;101258.78;4999009;28;20026;-78
2022/12/06 01:01:32;;;;;;;47.70;17.27;;;4.00;99.90;;;2.48;100.00;101255.31;5001110;28;20116;-78
2022/12/06 01:04:00;;;;;;;44.83;16.65;;;4.00;99.90;;;2.45;100.00;101252.75;5000865;28;20638;-78
2022/12/06 01:06:32;;;;;;;39.88;16.95;;;4.00;99.90;;;2.45;100.00;101252.75;4998843;28;20026;-78
2022/12/06 01:09:03;;;;;;;41.15;17.77;;;4.00;99.90;;;2.46;100.00;101254.44;4999015;28;20646;-79
2022/12/06 01:11:29;;;;;;;58.05;20.05;;;4.00;99.90;;;2.48;100.00;101252.72;5000268;28;20042;-78
2022/12/06 01:14:04;;;;;;;68.32;18.75;;;4.00;99.90;;;2.46;100.00;101255.34;5001461;28;20023;-78
2022/12/06 01:16:31;;;;;;;45.10;17.35;;;4.00;99.90;;;2.45;100.00;101244.94;4998850;28;20030;-79
2022/12/06 01:19:03;;;;;;;55.03;17.90;;;4.00;99.90;;;2.47;100.00;101251.84;4995407;28;20026;-78
2022/12/06 01:21:29;;;;;;;76.05;19.08;;;4.00;99.90;;;2.48;100.00;101244.91;4998791;28;20034;-78
2022/12/06 01:23:56;;;;;;;71.90;19.60;;;4.00;99.90;;;2.45;100.00;101238.00;5017199;28;20379;-78
2022/12/06 01:26:35;;;;;;;78.57;20.10;;;4.00;99.90;;;2.45;100.00;101239.75;4997387;28;20484;-78
2022/12/06 01:29:02;;;;;;;79.72;21.17;;;3.90;99.90;;;2.44;100.00;101238.00;4997242;28;20033;-78
2022/12/06 01:31:29;;;;;;;61.63;20.02;;;4.00;99.90;;;2.42;100.00;101237.16;5014728;28;20054;-78
2022/12/06 01:33:55;;;;;;;109.75;22.95;;;3.90;99.90;;;2.41;100.00;101243.22;4983580;28;20667;-78
2022/12/06 01:36:24;;;;;;;108.63;21.40;;;3.90;99.90;;;2.38;100.00;101235.44;4984755;28;20129;-78
2022/12/06 01:38:56;;;;;;;85.03;20.60;;;3.90;99.90;;;2.34;100.00;101241.53;5000246;28;20033;-78
2022/12/06 01:41:28;;;;;;;54.65;19.65;;;3.80;99.90;;;2.34;100.00;101231.13;5000938;28;20038;-78
2022/12/06 01:43:55;;;;;;;42.83;18.20;;;3.90;99.90;;;2.32;100.00;101231.13;4998721;28;20100;-77
2022/12/06 01:46:38;;;;;;;48.47;18.85;;;3.90;99.90;;;2.35;100.00;101225.06;5010090;23;20038;-78
2022/12/06 01:49:20;;;;;;;55.03;17.95;;;3.90;99.90;;;2.36;100.00;101230.25;5038362;28;20026;-78
2022/12/06 01:52:00;;;;;;;58.88;18.80;;;3.90;99.90;;;2.34;100.00;101219.00;5037288;28;20033;-78
2022/12/06 01:54:31;;;;;;;57.72;18.88;;;3.90;99.90;;;2.34;100.00;101218.16;5007112;28;20021;-78
2022/12/06 01:57:00;;;;;;;55.70;18.77;;;3.90;99.90;;;2.32;100.00;101212.94;5014377;28;20551;-77
2022/12/06 01:59:28;;;;;;;41.55;16.63;;;3.90;99.90;;;2.33;100.00;101213.81;4990716;28;20060;-77
2022/12/06 02:02:02;;;;;;;40.22;15.95;;;3.90;99.90;;;2.31;100.00;101213.84;4988601;28;21280;-78
2022/12/06 02:04:29;;;;;;;36.42;14.77;;;3.90;99.90;;;2.29;100.00;101209.50;4974212;28;20037;-78
2022/12/06 02:06:57;;;;;;;45.97;17.30;;;3.80;99.90;;;2.32;100.00;101207.75;5002977;28;20499;-78
2022/12/06 02:09:29;;;;;;;42.80;16.80;;;3.90;99.90;;;2.31;100.00;101208.63;4989549;28;20117;-78
2022/12/06 02:11:55;;;;;;;45.83;16.67;;;3.90;99.90;;;2.32;100.00;101202.56;5005298;28;20044;-77
2022/12/06 02:14:35;;;;;;;45.38;15.73;;;3.80;99.90;;;2.33;100.00;101212.06;4987702;28;20037;-78
2022/12/06 02:17:33;;;;;;;57.20;17.42;;;3.80;99.90;;;2.31;100.00;101199.94;5003526;28;20498;-78
2022/12/06 02:20:23;;;;;;;42.00;16.45;;;3.80;99.90;;;2.27;100.00;101191.31;5002269;28;20156;-78
2022/12/06 02:23:30;;;;;;;96.68;19.73;;;3.80;99.90;;;2.24;100.00;101192.19;5005524;28;20030;-78
2022/12/06 02:28:40;;;;;;;111.97;20.05;;;3.70;99.90;;;2.22;100.00;101185.28;5067677;23;20053;-78
2022/12/06 02:31:26;;;;;;;76.68;19.35;;;3.80;99.90;;;2.23;100.00;101190.47;5064731;28;20033;-78
2022/12/06 02:34:17;;;;;;;218.23;22.83;;;3.70;99.90;;;2.19;100.00;101191.34;5062383;28;20090;-78
2022/12/06 02:36:56;;;;;;;202.43;23.42;;;3.70;99.90;;;2.17;100.00;101180.09;5041492;28;20498;-78
2022/12/06 02:39:43;;;;;;;121.90;21.63;;;3.70;99.90;;;2.16;100.00;101180.97;5045429;28;20078;-78
2022/12/06 02:42:23;;;;;;;144.32;22.20;;;3.70;99.90;;;2.13;100.00;101180.97;5026362;28;20047;-78
2022/12/06 02:44:57;;;;;;;87.45;20.05;;;3.70;99.90;;;2.12;100.00;101174.06;5020477;28;20076;-77
2022/12/06 02:47:29;;;;;;;134.25;22.70;;;3.70;99.90;;;2.14;100.00;101176.63;5043669;28;20114;-78
2022/12/06 02:50:00;;;;;;;141.70;22.67;;;3.70;99.90;;;2.16;100.00;101174.91;5041601;28;20474;-77
2022/12/06 02:52:27;;;;;;;71.20;20.40;;;3.70;99.90;;;2.18;100.00;101175.75;5041536;28;20121;-76
2022/12/06 02:54:57;;;;;;;46.03;16.98;;;3.70;99.90;;;2.19;100.00;101178.34;5040717;28;20025;-77
2022/12/06 02:57:46;;;;;;;81.65;20.67;;;3.70;99.90;;;2.21;100.00;101175.75;5040448;28;20429;-78
2022/12/06 03:00:38;;;;;;;73.10;20.35;;;3.70;99.90;;;2.19;100.00;101178.34;5025668;28;20033;-77
2022/12/06 03:03:35;;;;;;;60.35;18.17;;;3.70;99.90;;;2.19;100.00;101174.91;5040368;28;20090;-77
2022/12/06 03:06:01;;;;;;;72.28;20.48;;;3.70;99.90;;;2.15;100.00;101166.25;5042284;28;20028;-77
2022/12/06 03:09:04;;;;;;;75.68;19.58;;;3.70;99.90;;;2.14;100.00;101161.94;5041343;28;20099;-77
2022/12/06 03:11:56;;;;;;;64.28;19.00;;;3.70;99.90;;;2.11;100.00;101164.53;5028827;28;20685;-78
2022/12/06 03:14:26;;;;;;;67.65;20.23;;;3.70;99.90;;;2.12;100.00;101165.41;5024028;28;20053;-78
2022/12/06 03:17:27;;;;;;;59.40;20.05;;;3.60;99.90;;;2.10;100.00;101161.97;5022686;28;20037;-78
2022/12/06 03:20:06;;;;;;;51.83;17.30;;;3.60;99.90;;;2.08;100.00;101156.78;5036472;28;20045;-78
2022/12/06 03:22:47;;;;;;;43.75;15.35;;;3.60;99.90;;;2.03;100.00;101158.50;5024305;28;20108;-77
2022/12/06 03:25:14;;;;;;;44.35;15.40;;;3.60;99.90;;;2.01;100.00;101157.69;5026300;28;20025;-78
2022/12/06 03:27:41;;;;;;;34.97;14.55;;;3.50;99.90;;;1.93;100.00;101149.06;5023479;28;20025;-77
2022/12/06 03:30:11;;;;;;;40.78;14.07;;;3.50;99.90;;;1.92;100.00;101139.50;5041237;28;20116;-78
2022/12/06 03:32:45;;;;;;;40.92;15.32;;;3.50;99.90;;;1.92;100.00;101137.78;5038818;28;20047;-78
2022/12/06 03:35:23;;;;;;;56.60;17.05;;;3.50;99.90;;;1.92;100.00;101144.72;5026265;28;20355;-78
2022/12/06 03:37:56;;;;;;;38.60;15.52;;;3.50;99.90;;;1.93;100.00;101141.25;5023826;28;20482;-78
2022/12/06 03:40:42;;;;;;;53.22;16.00;;;3.50;99.90;;;1.96;100.00;101142.09;5023651;28;20489;-78
2022/12/06 03:43:09;;;;;;;53.95;17.75;;;3.50;99.90;;;1.98;100.00;101136.91;5040246;28;20062;-78
2022/12/06 03:46:05;;;;;;;52.15;17.33;;;3.60;99.90;;;1.94;100.00;101130.84;5027684;28;20067;-78
2022/12/06 03:48:44;;;;;;;54.97;17.30;;;3.50;99.90;;;1.95;100.00;101136.94;5039044;28;20044;-78
2022/12/06 03:51:20;;;;;;;47.00;15.95;;;3.50;99.90;;;1.92;100.00;101126.53;5041115;28;20040;-78
2022/12/06 03:53:52;;;;;;;45.47;15.90;;;3.50;99.90;;;1.89;100.00;101132.59;5021059;28;20382;-77
2022/12/06 03:56:27;;;;;;;42.60;15.90;;;3.50;99.90;;;1.89;100.00;101124.81;5038986;28;20036;-78
2022/12/06 03:58:52;;;;;;;47.22;16.67;;;3.40;99.90;;;1.89;100.00;101126.56;5026204;28;20537;-78
2022/12/06 04:01:18;;;;;;;39.92;15.60;;;3.40;99.90;;;1.89;100.00;101121.38;5041945;28;20040;-79
2022/12/06 04:03:44;;;;;;;35.20;14.35;;;3.40;99.90;;;1.87;100.00;101125.69;5040457;28;20028;-77
2022/12/06 04:06:16;;;;;;;33.95;14.57;;;3.40;99.90;;;1.89;100.00;101126.56;5030322;28;20034;-78
2022/12/06 04:08:42;;;;;;;37.90;13.70;;;3.40;99.90;;;1.87;100.00;101118.75;5030489;28;20048;-78
2022/12/06 04:11:07;;;;;;;50.42;16.65;;;3.40;99.90;;;1.85;100.00;101126.56;5026064;28;20404;-77
2022/12/06 04:13:34;;;;;;;42.38;15.25;;;3.40;99.90;;;1.84;100.00;101126.59;5007207;28;20029;-79
2022/12/06 04:16:01;;;;;;;40.67;15.88;;;3.40;99.90;;;1.83;100.00;101117.91;5022965;28;20029;-78
2022/12/06 04:18:31;;;;;;;44.67;15.02;;;3.40;99.90;;;1.82;100.00;101121.38;5038817;28;20421;-78
2022/12/06 04:23:54;;;;;;;46.75;16.13;;;3.40;99.90;;;1.81;100.00;101111.00;5043804;28;20133;-78
2022/12/06 04:26:21;;;;;;;45.17;17.05;;;3.40;99.90;;;1.79;100.00;101105.84;5021829;28;20033;-79
2022/12/06 04:39:51;;;;;;;54.38;17.90;;;3.30;99.90;;;1.71;100.00;101097.22;5026615;28;20083;-78
2022/12/06 04:45:04;;;;;;;64.07;20.15;;;3.30;99.90;;;1.70;100.00;101090.28;5039762;28;20092;-78
2022/12/06 04:47:35;;;;;;;61.90;21.15;;;3.30;99.90;;;1.69;100.00;101085.09;5039373;28;20021;-79
2022/12/06 04:50:01;;;;;;;66.40;20.52;;;3.30;99.90;;;1.63;100.00;101079.06;5040685;28;20041;-78
2022/12/06 04:52:27;;;;;;;58.25;20.27;;;3.30;99.90;;;1.63;100.00;101071.25;5038423;28;20132;-78
2022/12/06 04:54:53;;;;;;;56.17;19.05;;;3.30;99.90;;;1.66;100.00;101077.31;5038387;28;20740;-78
2022/12/06 04:57:19;;;;;;;64.25;21.25;;;3.20;99.90;;;1.63;100.00;101071.25;5041013;28;20030;-79
2022/12/06 04:59:55;;;;;;;59.78;20.63;;;3.20;99.90;;;1.64;100.00;101067.81;5023264;28;20108;-79
2022/12/06 05:02:21;;;;;;;59.53;19.75;;;3.20;99.90;;;1.64;100.00;101070.41;5040881;28;20042;-79
2022/12/06 05:04:47;;;;;;;65.43;21.10;;;3.20;99.90;;;1.62;100.00;101066.97;5038685;28;20074;-78
2022/12/06 05:07:13;;;;;;;69.53;21.30;;;3.20;99.90;;;1.63;100.00;101065.22;5029011;28;20409;-78
2022/12/06 05:09:43;;;;;;;59.28;21.00;;;3.20;99.90;;;1.64;100.00;101064.34;5040265;28;20556;-79
2022/12/06 05:12:09;;;;;;;63.90;21.15;;;3.20;99.90;;;1.66;100.00;101065.19;5041043;28;20036;-78
2022/12/06 05:14:35;;;;;;;55.97;19.52;;;3.20;99.90;;;1.66;100.00;101062.59;5044155;28;20025;-78
2022/12/06 05:17:00;;;;;;;64.43;20.08;;;3.20;99.90;;;1.66;100.00;101067.78;5038799;28;20032;-78
2022/12/06 05:19:26;;;;;;;56.97;19.02;;;3.20;99.90;;;1.63;100.00;101063.47;5038488;28;20025;-78
2022/12/06 05:21:52;;;;;;;58.40;19.45;;;3.20;99.90;;;1.62;100.00;101064.38;5041494;28;20055;-78
2022/12/06 05:24:25;;;;;;;53.40;17.90;;;3.20;99.90;;;1.60;100.00;101055.72;5041684;28;20629;-78
2022/12/06 05:26:51;;;;;;;47.20;16.67;;;3.20;99.90;;;1.60;100.00;101057.47;5034669;28;20590;-78
2022/12/06 05:29:18;;;;;;;53.65;17.10;;;3.20;99.90;;;1.58;100.00;101060.06;5043868;28;20119;-78
2022/12/06 05:31:44;;;;;;;48.35;17.52;;;3.20;99.90;;;1.58;100.00;101059.19;5025508;28;20057;-79
2022/12/06 05:34:18;;;;;;;42.08;15.85;;;3.20;99.90;;;1.59;100.00;101060.91;5029354;28;20132;-79
2022/12/06 05:36:44;;;;;;;40.72;15.77;;;3.20;99.90;;;1.57;100.00;101053.13;5043689;28;20029;-77
2022/12/06 05:39:10;;;;;;;41.20;16.15;;;3.20;99.90;;;1.59;100.00;101050.53;5044609;28;20115;-78
2022/12/06 05:41:36;;;;;;;43.90;16.05;;;3.20;99.90;;;1.58;100.00;101038.44;5026022;28;20028;-78
2022/12/06 05:44:07;;;;;;;50.63;16.77;;;3.20;99.90;;;1.59;100.00;101037.53;5042444;28;20055;-79
2022/12/06 05:46:33;;;;;;;54.40;16.80;;;3.20;99.90;;;1.60;100.00;101047.06;5026223;28;20041;-79
2022/12/06 05:48:59;;;;;;;51.60;17.35;;;3.20;99.90;;;1.58;100.00;101049.66;5043080;28;20043;-78
2022/12/06 05:51:24;;;;;;;47.80;17.63;;;3.10;99.90;;;1.57;100.00;101041.88;5044045;28;20045;-77
2022/12/06 05:53:50;;;;;;;45.42;15.57;;;3.20;99.90;;;1.55;100.00;101041.03;5041158;28;20642;-78
2022/12/06 05:56:16;;;;;;;41.35;17.50;;;3.10;99.90;;;1.55;100.00;101043.63;5025687;28;20116;-77
2022/12/06 05:58:45;;;;;;;47.10;16.70;;;3.10;99.90;;;1.56;100.00;101046.22;5026602;28;20033;-79
2022/12/06 06:01:13;;;;;;;51.35;17.50;;;3.10;99.90;;;1.55;100.00;101046.22;5043442;28;20083;-79
2022/12/06 06:03:39;;;;;;;49.47;17.25;;;3.10;99.90;;;1.53;100.00;101045.34;5042417;28;20029;-78
2022/12/06 06:06:05;;;;;;;50.15;18.05;;;3.10;99.90;;;1.54;100.00;101041.91;5042072;28;20033;-78
2022/12/06 06:08:31;;;;;;;57.15;17.63;;;3.10;99.90;;;1.54;100.00;101037.56;5043258;28;20093;-78
2022/12/06 06:11:01;;;;;;;54.42;17.70;;;3.10;99.90;;;1.54;100.00;101036.72;5048071;28;20032;-78
2022/12/06 06:13:29;;;;;;;72.30;18.70;;;3.10;99.90;;;1.54;100.00;101036.72;5027244;28;20042;-78
2022/12/06 06:15:55;;;;;;;78.38;19.35;;;3.10;99.90;;;1.54;100.00;101031.53;5043282;28;20028;-78
2022/12/06 06:18:21;;;;;;;52.00;18.60;;;3.20;99.90;;;1.53;100.00;101040.16;5040163;28;20022;-79
2022/12/06 06:20:55;;;;;;;44.50;17.52;;;3.10;99.90;;;1.54;100.00;101044.50;5040593;28;20474;-78
2022/12/06 06:23:23;;;;;;;67.85;18.38;;;3.10;99.90;;;1.55;100.00;101031.50;5044498;28;20132;-79
2022/12/06 06:25:49;;;;;;;44.97;17.35;;;3.10;99.90;;;1.58;100.00;101041.03;5014053;28;20055;-79
2022/12/06 06:28:16;;;;;;;54.53;17.88;;;3.10;99.90;;;1.56;100.00;101040.16;5026645;28;20046;-77
2022/12/06 06:30:46;;;;;;;48.13;17.60;;;3.20;99.90;;;1.56;100.00;101038.44;5040797;28;20033;-79
2022/12/06 06:33:13;;;;;;;41.47;16.52;;;3.20;99.90;;;1.56;100.00;101045.34;5041271;28;20037;-79
2022/12/06 06:35:40;;;;;;;43.03;16.42;;;3.10;99.90;;;1.57;100.00;101045.31;5028126;28;20031;-78
2022/12/06 06:38:06;;;;;;;41.13;16.02;;;3.10;99.90;;;1.55;100.00;101036.69;5043012;28;20084;-77
2022/12/06 06:40:32;;;;;;;41.45;15.90;;;3.10;99.90;;;1.55;100.00;101046.22;5041318;28;20105;-78
2022/12/06 06:43:16;;;;;;;43.88;15.63;;;3.10;99.90;;;1.56;100.00;101051.41;5042322;28;20029;-78
2022/12/06 06:45:54;;;;;;;39.13;15.25;;;3.10;99.90;;;1.55;100.00;101049.66;5041677;28;20033;-79
2022/12/06 06:48:24;;;;;;;38.30;15.18;;;3.10;99.90;;;1.56;100.00;101041.03;5041492;28;20025;-78
2022/12/06 06:50:50;;;;;;;39.00;14.98;;;3.10;99.90;;;1.57;100.00;101041.88;5048114;28;20036;-79
2022/12/06 06:53:17;;;;;;;34.65;13.75;;;3.10;99.90;;;1.56;100.00;101043.63;5040406;28;20165;-78
2022/12/06 06:55:43;;;;;;;31.73;13.55;;;3.10;99.90;;;1.57;100.00;101041.88;5023757;28;20082;-79
2022/12/06 06:58:18;;;;;;;31.80;12.95;;;3.10;99.90;;;1.56;100.00;101041.03;5024230;28;20120;-79
2022/12/06 07:00:44;;;;;;;32.75;12.98;;;3.10;99.90;;;1.58;100.00;101038.44;5026207;28;20424;-78
2022/12/06 07:03:18;;;;;;;31.08;13.00;;;3.20;99.90;;;1.60;100.00;101041.88;5043181;28;20036;-78
2022/12/06 07:05:55;;;;;;;40.20;14.68;;;3.20;99.90;;;1.62;100.00;101040.13;5041879;28;20537;-78
2022/12/06 07:08:24;;;;;;;36.78;14.25;;;3.20;99.90;;;1.61;100.00;101039.25;5038978;28;20045;-78
2022/12/06 07:10:50;;;;;;;39.10;13.63;;;3.20;99.90;;;1.63;100.00;101036.66;5040977;28;20489;-78
2022/12/06 07:13:31;;;;;;;33.35;13.95;;;3.20;99.90;;;1.61;100.00;101041.00;5041557;28;20810;-77
2022/12/06 07:15:57;;;;;;;38.42;14.50;;;3.20;99.90;;;1.62;100.00;101051.38;5041758;28;20402;-78
2022/12/06 07:18:24;;;;;;;34.25;14.02;;;3.20;99.90;;;1.64;100.00;101043.56;5040855;28;20026;-77
2022/12/06 07:21:02;;;;;;;37.63;13.35;;;3.20;99.90;;;1.63;100.00;101044.44;5022749;28;20029;-78
2022/12/06 07:23:38;;;;;;;36.10;12.60;;;3.20;99.90;;;1.61;100.00;101041.84;5043230;28;20037;-78
2022/12/06 07:26:19;;;;;;;31.08;11.80;;;3.20;99.90;;;1.61;100.00;101049.63;5023775;28;20037;-77
2022/12/06 07:28:47;;;;;;;30.80;12.75;;;3.20;99.90;;;1.62;100.00;101041.00;5041771;28;20123;-77
2022/12/06 07:31:22;;;;;;;32.33;11.77;;;3.20;99.90;;;1.64;100.00;101043.56;5040262;28;20094;-78
2022/12/06 07:33:53;;;;;;;35.35;12.55;;;3.20;99.90;;;1.64;100.00;101044.44;5022083;28;20029;-77
2022/12/06 07:36:30;;;;;;;30.95;12.65;;;3.20;99.90;;;1.66;100.00;101041.81;5043064;28;20053;-77
2022/12/06 07:39:01;;;;;;;36.20;12.95;;;3.20;99.90;;;1.67;100.00;101053.94;5044034;28;20037;-76
2022/12/06 07:46:59;;;;;;;;;;;3.20;99.90;;;1.64;100.00;101033.19;5031003;28;20569;-77
2022/12/06 07:49:28;;;;;;;31.95;12.02;;;3.20;99.90;;;1.63;100.00;101034.06;5024632;28;19913;-77
2022/12/06 07:51:55;;;;;;;35.72;12.68;;;3.20;99.90;;;1.65;100.00;101029.72;5040067;28;20520;-77
2022/12/06 07:54:22;;;;;;;37.78;12.50;;;3.20;99.90;;;1.66;100.00;101033.19;5041037;28;20637;-78
2022/12/06 07:56:48;;;;;;;36.20;13.25;;;3.20;99.90;;;1.64;100.00;101034.06;5021728;28;20040;-76
2022/12/06 07:59:16;;;;;;;32.67;11.77;;;3.20;99.90;;;1.68;100.00;101031.44;5041488;28;20392;-76
2022/12/06 08:01:45;;;;;;;33.25;12.48;;;3.20;99.90;;;1.69;100.00;101034.03;5042890;28;20078;-77
2022/12/06 08:04:11;;;;;;;34.13;12.68;;;3.30;99.90;;;1.68;100.00;101028.84;5040562;28;20036;-77
2022/12/06 08:06:37;;;;;;;38.20;12.68;;;3.20;99.90;;;1.67;100.00;101028.00;5038351;28;20037;-77
2022/12/06 08:09:04;;;;;;;31.42;13.18;;;3.30;99.90;;;1.71;100.00;101029.72;5037462;28;20029;-77
2022/12/06 08:11:37;;;;;;;33.83;12.98;;;3.30;99.90;;;1.71;100.00;101028.84;5038267;28;20033;-78
2022/12/06 08:14:04;;;;;;;35.10;12.90;;;3.30;99.90;;;1.70;100.00;101033.16;5043358;28;20485;-77
2022/12/06 08:16:29;;;;;;;35.95;13.32;;;3.30;99.90;;;1.73;100.00;101032.28;5039718;28;20032;-78
2022/12/06 08:18:56;;;;;;;40.30;14.60;;;3.30;99.90;;;1.73;100.00;101027.06;5023814;28;20033;-77
2022/12/06 08:21:29;;;;;;;41.95;14.00;;;3.30;99.90;;;1.72;100.00;101026.22;5039154;28;20448;-78
2022/12/06 08:23:55;;;;;;;39.03;14.25;;;3.30;99.90;;;1.78;100.00;101031.38;5041399;28;20481;-77
2022/12/06 08:26:22;;;;;;;48.00;15.30;;;3.30;99.90;;;1.79;100.00;101038.31;5038622;28;20040;-78
2022/12/06 08:28:49;;;;;;;43.42;14.73;;;3.40;99.90;;;1.85;100.00;101038.25;5022731;28;20036;-78
2022/12/06 08:31:22;;;;;;;41.50;15.63;;;3.40;99.90;;;1.81;100.00;101036.59;5038926;28;20430;-77
2022/12/06 08:33:48;;;;;;;42.33;16.23;;;3.40;99.90;;;1.86;100.00;101036.56;5026996;28;20466;-78
2022/12/06 08:36:18;;;;;;;44.97;15.73;;;3.40;99.90;;;1.89;100.00;101041.72;5031934;28;20028;-78
2022/12/06 08:38:48;;;;;;;54.28;16.83;;;3.40;99.90;;;1.85;100.00;101043.44;5040309;28;20021;-78
2022/12/06 08:44:00;;;;;;;49.83;16.08;;;3.50;99.90;;;1.91;100.00;101036.53;5023958;28;20044;-77
2022/12/06 08:46:34;;;;;;;51.28;16.45;;;3.50;99.90;;;1.95;100.00;101044.28;5038110;28;20108;-76
2022/12/06 08:49:01;;;;;;;54.53;17.92;;;3.50;99.90;;;2.00;100.00;101046.84;5024240;28;20029;-77
2022/12/06 08:51:30;;;;;;;65.55;18.55;;;3.50;99.90;;;2.00;100.00;101037.31;5041253;28;20029;-77
2022/12/06 08:53:56;;;;;;;61.80;20.17;;;3.60;99.90;;;2.07;100.00;101038.13;5038423;28;20106;-79
2022/12/06 08:56:23;;;;;;;58.88;19.13;;;3.60;99.90;;;2.07;100.00;101038.13;5038381;28;20444;-78
2022/12/06 08:58:51;;;;;;;76.32;20.80;;;3.60;99.90;;;2.14;100.00;101041.53;5040764;28;20457;-78
2022/12/06 09:01:31;;;;;;;54.90;16.85;;;3.60;99.90;;;2.13;100.00;101035.50;5027674;28;20021;-77
2022/12/06 09:04:07;;;;;;;65.28;18.80;;;3.70;99.90;;;2.20;100.00;101044.09;5040306;28;20037;-79
2022/12/06 09:06:36;;;;;;;58.90;18.40;;;3.70;99.90;;;2.23;100.00;101039.75;5042830;28;20051;-79
2022/12/06 09:09:09;;;;;;;65.68;18.27;;;3.70;99.90;;;2.19;100.00;101040.66;5043818;28;20512;-77
2022/12/06 09:11:38;;;;;;;72.70;19.05;;;3.70;99.90;;;2.23;100.00;101038.91;5044605;28;20037;-78
2022/12/06 09:14:09;;;;;;;80.88;20.33;;;3.70;99.90;;;2.24;100.00;101031.06;5030198;28;20089;-77
2022/12/06 09:16:39;;;;;;;73.13;20.10;;;3.80;99.90;;;2.29;100.00;101043.19;5024255;28;20041;-78
2022/12/06 09:19:05;;;;;;;71.40;20.30;;;3.80;99.90;;;2.31;100.00;101039.72;5026929;28;20029;-78
2022/12/06 09:21:33;;;;;;;67.40;19.48;;;3.80;99.90;;;2.32;100.00;101041.44;5036020;28;20044;-78
2022/12/06 09:23:59;;;;;;;74.38;19.13;;;3.80;99.90;;;2.33;100.00;101044.88;5026682;28;20110;-78
2022/12/06 09:26:31;;;;;;;66.15;19.50;;;3.80;99.90;;;2.36;100.00;101047.47;5044604;28;20595;-77
2022/12/06 09:28:58;;;;;;;49.95;17.80;;;3.90;99.90;;;2.38;100.00;101049.19;5027468;28;20448;-78
2022/12/06 09:31:28;;;;;;;105.75;22.30;;;3.90;99.90;;;2.37;100.00;101050.03;5041610;28;20038;-78
2022/12/06 09:33:54;;;;;;;91.07;20.17;;;3.90;99.90;;;2.33;100.00;101050.94;5041846;28;20045;-79
2022/12/06 09:36:29;;;;;;;75.85;20.33;;;3.90;99.90;;;2.34;100.00;101050.06;5010737;28;20508;-79
2022/12/06 09:39:12;;;;;;;62.80;19.25;;;3.90;99.90;;;2.34;100.00;101052.69;5044299;28;20029;-77
2022/12/06 09:42:13;;;;;;;69.05;19.55;;;3.90;99.90;;;2.33;100.00;101043.13;5028490;28;20041;-78
2022/12/06 09:45:06;;;;;;;93.85;20.58;;;3.90;99.90;;;2.33;100.00;101044.88;5040967;28;20067;-78
2022/12/06 09:48:14;;;;;;;68.75;19.30;;;3.90;99.90;;;2.40;100.00;101043.97;5045819;28;20044;-81
2022/12/06 09:51:02;;;;;;;75.65;19.08;;;3.90;99.90;;;2.42;100.00;101047.44;5044410;28;20060;-78
2022/12/06 09:53:40;;;;;;;66.07;18.58;;;4.00;99.90;;;2.44;100.00;101037.84;5025701;28;20041;-78
2022/12/06 09:56:53;;;;;;;66.05;18.25;;;4.00;99.90;;;2.44;100.00;101030.06;5044344;28;20056;-78
2022/12/06 09:59:35;;;;;;;68.32;18.65;;;4.00;99.90;;;2.49;100.00;101030.91;5043975;28;20212;-78
2022/12/06 10:02:44;;;;;;;65.85;18.92;;;4.00;99.90;;;2.53;100.00;101032.59;5041204;28;20552;-78
2022/12/06 10:05:41;;;;;;;65.63;18.58;;;4.00;99.90;;;2.61;100.00;101028.22;5046248;28;20029;-78
2022/12/06 10:09:04;;;;;;;62.08;17.40;;;4.10;99.90;;;2.64;100.00;101028.16;5044139;28;20025;-77
2022/12/06 10:11:54;;;;;;;59.58;16.65;;;4.10;99.90;;;2.66;100.00;101023.81;4950326;28;20062;-78
2022/12/06 10:15:16;;;;;;;49.70;16.33;;;4.20;99.90;;;2.75;100.00;101022.00;5028785;28;20029;-78
2022/12/06 10:18:27;;;;;;;59.72;17.17;;;4.20;99.90;;;2.79;100.00;101016.75;5043537;28;20512;-78
2022/12/06 10:21:48;;;;;;;47.92;15.60;;;4.20;99.90;;;2.84;100.00;101025.38;5023714;28;20078;-78
2022/12/06 10:24:42;;;;;;;38.83;14.13;;;4.30;99.90;;;2.86;100.00;101022.75;5028958;28;20532;-78
2022/12/06 10:27:27;;;;;;;43.88;14.70;;;4.30;99.90;;;2.92;100.00;101020.09;5025634;28;20044;-77
2022/12/06 10:30:04;;;;;;;46.00;15.40;;;4.40;99.90;;;2.98;100.00;101016.56;5041673;28;20033;-78
2022/12/06 10:33:04;;;;;;;39.53;14.70;;;4.40;99.90;;;3.05;100.00;101013.88;5040481;28;20041;-78
2022/12/06 10:35:43;;;;;;;43.42;14.57;;;4.50;99.90;;;3.07;100.00;101009.53;5044304;28;20032;-78
2022/12/06 10:38:37;;;;;;;34.10;14.15;;;4.50;99.90;;;3.16;100.00;101010.31;5045622;28;20086;-78
2022/12/06 10:42:03;;;;;;;45.15;14.50;;;4.60;99.90;;;3.18;100.00;101008.56;5044377;28;20059;-77
2022/12/06 10:44:39;;;;;;;37.90;14.25;;;4.60;99.90;;;3.25;100.00;101000.63;4947538;28;20042;-78
2022/12/06 10:47:22;;;;;;;43.20;15.32;;;4.70;99.90;;;3.31;100.00;100991.06;5019484;28;20048;-78
2022/12/06 10:50:24;;;;;;;42.55;14.48;;;4.70;99.90;;;3.32;100.00;100996.22;5043449;28;20504;-77
2022/12/06 10:53:01;;;;;;;47.97;15.27;;;4.80;99.90;;;3.36;100.00;100994.44;5023441;28;20048;-78
2022/12/06 10:56:15;;;;;;;36.10;12.52;;;4.80;99.90;;;3.32;100.00;100992.75;5040951;28;20071;-78
2022/12/06 10:58:55;;;;;;;32.67;12.52;;;4.80;99.90;;;3.36;100.00;100987.50;5041525;28;20505;-78
2022/12/06 11:01:27;;;;;;;26.25;12.00;;;4.80;99.90;;;3.46;100.00;100985.66;5044123;28;20037;-79